sensor_id;sensor_type;location;lat;lon;timestamp;pressure;altitude;pressure_sealevel;temperature;humidity
5954;BME280;3002;42.642;24.812;2022-12-28T00:01:22;97319.53;;;12.94;59.87
5954;BME280;3002;42.642;24.812;2022-12-28T00:03:48;97287.72;;;12.67;58.40
5954;BME280;3002;42.642;24.812;2022-12-28T00:06:15;97324.31;;;13.36;53.32
5954;BME280;3002;42.642;24.812;2022-12-28T00:08:42;97320.41;;;13.76;49.37
5954;BME280;3002;42.642;24.812;2022-12-28T00:11:12;97300.28;;;14.16;42.20
5954;BME280;3002;42.642;24.812;2022-12-28T00:13:38;97289.84;;;14.29;40.60
5954;BME280;3002;42.642;24.812;2022-12-28T00:16:25;97299.31;;;14.26;48.27
5954;BME280;3002;42.642;24.812;2022-12-28T00:18:54;97308.78;;;14.05;52.35
5954;BME280;3002;42.642;24.812;2022-12-28T00:21:21;97339.75;;;14.07;53.87
5954;BME280;3002;42.642;24.812;2022-12-28T00:23:48;97353.88;;;13.75;54.29
5954;BME280;3002;42.642;24.812;2022-12-28T00:26:15;97328.78;;;13.51;52.79
5954;BME280;3002;42.642;24.812;2022-12-28T00:28:40;97327.13;;;13.79;50.88
5954;BME280;3002;42.642;24.812;2022-12-28T00:31:06;97354.63;;;13.81;51.06
5954;BME280;3002;42.642;24.812;2022-12-28T00:33:32;97319.66;;;13.71;46.67
5954;BME280;3002;42.642;24.812;2022-12-28T00:35:59;97321.47;;;14.04;42.67
5954;BME280;3002;42.642;24.812;2022-12-28T00:38:26;97333.09;;;14.24;41.75
5954;BME280;3002;42.642;24.812;2022-12-28T00:40:52;97322.75;;;14.31;40.99
5954;BME280;3002;42.642;24.812;2022-12-28T00:43:17;97321.50;;;14.42;39.24
5954;BME280;3002;42.642;24.812;2022-12-28T00:45:44;97320.72;;;13.75;48.49
5954;BME280;3002;42.642;24.812;2022-12-28T00:48:10;97349.22;;;14.29;49.68
5954;BME280;3002;42.642;24.812;2022-12-28T00:50:36;97318.66;;;13.37;52.66
5954;BME280;3002;42.642;24.812;2022-12-28T00:53:02;97339.81;;;13.78;52.25
5954;BME280;3002;42.642;24.812;2022-12-28T00:55:28;97322.81;;;13.78;52.03
5954;BME280;3002;42.642;24.812;2022-12-28T00:57:53;97347.63;;;14.04;51.49
5954;BME280;3002;42.642;24.812;2022-12-28T01:00:19;97347.69;;;13.99;51.98
5954;BME280;3002;42.642;24.812;2022-12-28T01:02:44;97347.63;;;13.22;54.55
5954;BME280;3002;42.642;24.812;2022-12-28T01:05:09;97298.56;;;12.51;55.86
5954;BME280;3002;42.642;24.812;2022-12-28T01:07:35;97309.66;;;12.84;55.32
5954;BME280;3002;42.642;24.812;2022-12-28T01:10:00;97300.13;;;12.97;54.13
5954;BME280;3002;42.642;24.812;2022-12-28T01:12:27;97342.91;;;13.37;54.75
5954;BME280;3002;42.642;24.812;2022-12-28T01:14:53;97336.78;;;13.32;54.87
5954;BME280;3002;42.642;24.812;2022-12-28T01:17:19;97326.66;;;13.13;54.06
5954;BME280;3002;42.642;24.812;2022-12-28T01:19:44;97336.56;;;13.23;55.54
5954;BME280;3002;42.642;24.812;2022-12-28T01:22:10;97320.44;;;12.84;55.76
5954;BME280;3002;42.642;24.812;2022-12-28T01:24:35;97320.50;;;12.69;56.64
5954;BME280;3002;42.642;24.812;2022-12-28T01:27:01;97317.88;;;12.98;56.38
5954;BME280;3002;42.642;24.812;2022-12-28T01:29:28;97343.13;;;13.07;56.58
5954;BME280;3002;42.642;24.812;2022-12-28T01:31:54;97320.16;;;12.80;57.85
5954;BME280;3002;42.642;24.812;2022-12-28T01:34:19;97332.75;;;12.90;58.23
5954;BME280;3002;42.642;24.812;2022-12-28T01:36:46;97326.50;;;12.95;56.97
5954;BME280;3002;42.642;24.812;2022-12-28T01:39:11;97339.19;;;12.55;58.88
5954;BME280;3002;42.642;24.812;2022-12-28T01:41:39;97332.00;;;12.35;59.28
5954;BME280;3002;42.642;24.812;2022-12-28T01:47:02;97328.78;;;12.38;59.52
5954;BME280;3002;42.642;24.812;2022-12-28T01:49:35;97327.56;;;12.05;60.53
5954;BME280;3002;42.642;24.812;2022-12-28T01:52:15;97333.78;;;12.60;58.79
5954;BME280;3002;42.642;24.812;2022-12-28T01:54:52;97318.31;;;12.31;55.52
5954;BME280;3002;42.642;24.812;2022-12-28T01:57:22;97345.38;;;12.50;56.38
5954;BME280;3002;42.642;24.812;2022-12-28T01:59:54;97324.47;;;12.37;56.13
5954;BME280;3002;42.642;24.812;2022-12-28T02:02:22;97324.06;;;12.98;48.78
5954;BME280;3002;42.642;24.812;2022-12-28T02:04:48;97337.47;;;13.43;49.72
5954;BME280;3002;42.642;24.812;2022-12-28T02:10:14;97324.31;;;13.36;46.82
5954;BME280;3002;42.642;24.812;2022-12-28T02:12:43;97328.72;;;13.56;41.46
5954;BME280;3002;42.642;24.812;2022-12-28T02:15:09;97298.97;;;13.37;39.16
5954;BME280;3002;42.642;24.812;2022-12-28T02:17:35;97283.09;;;13.64;34.17
5954;BME280;3002;42.642;24.812;2022-12-28T02:20:01;97312.03;;;14.02;32.04
5954;BME280;3002;42.642;24.812;2022-12-28T02:22:33;97298.75;;;13.86;43.81
5954;BME280;3002;42.642;24.812;2022-12-28T02:27:51;97312.25;;;12.94;51.36
5954;BME280;3002;42.642;24.812;2022-12-28T02:30:22;97306.56;;;13.35;50.33
5954;BME280;3002;42.642;24.812;2022-12-28T02:35:58;97308.59;;;13.72;49.11
5954;BME280;3002;42.642;24.812;2022-12-28T02:38:33;97305.72;;;13.05;51.34
5954;BME280;3002;42.642;24.812;2022-12-28T02:41:07;97323.84;;;13.58;50.89
5954;BME280;3002;42.642;24.812;2022-12-28T02:43:33;97303.31;;;13.04;51.76
5954;BME280;3002;42.642;24.812;2022-12-28T02:49:26;97305.75;;;12.66;51.04
5954;BME280;3002;42.642;24.812;2022-12-28T02:56:07;97329.81;;;12.86;52.00
5954;BME280;3002;42.642;24.812;2022-12-28T03:02:03;97322.91;;;13.44;51.20
5954;BME280;3002;42.642;24.812;2022-12-28T03:07:49;97321.41;;;12.93;52.18
5954;BME280;3002;42.642;24.812;2022-12-28T03:10:49;97322.88;;;13.15;51.94
5954;BME280;3002;42.642;24.812;2022-12-28T03:13:45;97322.59;;;13.21;48.66
5954;BME280;3002;42.642;24.812;2022-12-28T03:16:26;97312.75;;;13.35;50.30
5954;BME280;3002;42.642;24.812;2022-12-28T03:18:58;97330.94;;;13.49;49.89
5954;BME280;3002;42.642;24.812;2022-12-28T03:21:44;97336.47;;;12.60;51.97
5954;BME280;3002;42.642;24.812;2022-12-28T03:24:30;97320.09;;;12.91;50.61
5954;BME280;3002;42.642;24.812;2022-12-28T03:27:17;97344.34;;;12.91;50.94
5954;BME280;3002;42.642;24.812;2022-12-28T03:30:08;97336.66;;;12.19;52.65
5954;BME280;3002;42.642;24.812;2022-12-28T03:32:54;97329.16;;;12.11;53.42
5954;BME280;3002;42.642;24.812;2022-12-28T03:35:22;97360.63;;;12.11;54.55
5954;BME280;3002;42.642;24.812;2022-12-28T03:37:55;97362.00;;;11.93;55.72
5954;BME280;3002;42.642;24.812;2022-12-28T03:43:23;97353.91;;;12.13;55.89
5954;BME280;3002;42.642;24.812;2022-12-28T03:46:33;97375.75;;;11.71;56.88
5954;BME280;3002;42.642;24.812;2022-12-28T03:49:01;97367.47;;;11.52;57.00
5954;BME280;3002;42.642;24.812;2022-12-28T03:51:29;97343.84;;;10.83;58.60
5954;BME280;3002;42.642;24.812;2022-12-28T03:53:56;97336.84;;;10.97;58.14
5954;BME280;3002;42.642;24.812;2022-12-28T03:56:24;97367.22;;;10.97;57.97
5954;BME280;3002;42.642;24.812;2022-12-28T03:58:51;97347.59;;;10.77;59.18
5954;BME280;3002;42.642;24.812;2022-12-28T04:01:17;97356.44;;;11.03;59.54
5954;BME280;3002;42.642;24.812;2022-12-28T04:03:43;97370.41;;;10.99;59.89
5954;BME280;3002;42.642;24.812;2022-12-28T04:06:11;97351.88;;;11.03;59.25
5954;BME280;3002;42.642;24.812;2022-12-28T04:08:37;97366.38;;;10.87;57.58
5954;BME280;3002;42.642;24.812;2022-12-28T04:11:03;97369.84;;;10.82;57.93
5954;BME280;3002;42.642;24.812;2022-12-28T04:13:32;97398.63;;;11.12;58.54
5954;BME280;3002;42.642;24.812;2022-12-28T04:16:00;97395.13;;;11.27;57.59
5954;BME280;3002;42.642;24.812;2022-12-28T04:18:27;97401.56;;;11.26;57.05
5954;BME280;3002;42.642;24.812;2022-12-28T04:20:53;97403.19;;;11.22;57.52
5954;BME280;3002;42.642;24.812;2022-12-28T04:23:18;97368.78;;;10.88;57.73
5954;BME280;3002;42.642;24.812;2022-12-28T04:25:55;97370.41;;;10.74;59.24
5954;BME280;3002;42.642;24.812;2022-12-28T04:28:20;97387.06;;;11.02;58.99
5954;BME280;3002;42.642;24.812;2022-12-28T04:30:46;97398.31;;;11.09;58.62
5954;BME280;3002;42.642;24.812;2022-12-28T04:33:12;97400.47;;;10.96;56.82
5954;BME280;3002;42.642;24.812;2022-12-28T04:35:38;97383.38;;;10.30;58.03
5954;BME280;3002;42.642;24.812;2022-12-28T04:38:03;97404.19;;;10.75;57.27
5954;BME280;3002;42.642;24.812;2022-12-28T04:40:29;97411.50;;;11.56;55.74
5954;BME280;3002;42.642;24.812;2022-12-28T04:42:56;97397.81;;;11.17;57.57
5954;BME280;3002;42.642;24.812;2022-12-28T04:45:21;97405.88;;;11.17;58.22
5954;BME280;3002;42.642;24.812;2022-12-28T04:47:48;97405.06;;;11.32;58.68
5954;BME280;3002;42.642;24.812;2022-12-28T04:50:15;97405.34;;;11.40;58.11
5954;BME280;3002;42.642;24.812;2022-12-28T04:52:41;97391.09;;;10.99;59.31
5954;BME280;3002;42.642;24.812;2022-12-28T04:55:07;97388.09;;;10.85;59.51
5954;BME280;3002;42.642;24.812;2022-12-28T04:57:32;97411.44;;;10.75;59.38
5954;BME280;3002;42.642;24.812;2022-12-28T04:59:58;97399.56;;;10.50;59.03
5954;BME280;3002;42.642;24.812;2022-12-28T05:02:23;97404.47;;;10.74;57.43
5954;BME280;3002;42.642;24.812;2022-12-28T05:04:49;97413.66;;;11.39;57.92
5954;BME280;3002;42.642;24.812;2022-12-28T05:07:14;97424.38;;;11.18;59.05
5954;BME280;3002;42.642;24.812;2022-12-28T05:09:39;97400.22;;;11.18;58.36
5954;BME280;3002;42.642;24.812;2022-12-28T05:12:05;97404.53;;;11.35;58.31
5954;BME280;3002;42.642;24.812;2022-12-28T05:14:30;97416.88;;;11.05;57.15
5954;BME280;3002;42.642;24.812;2022-12-28T05:16:56;97414.19;;;11.41;57.33
5954;BME280;3002;42.642;24.812;2022-12-28T05:19:21;97415.81;;;11.52;57.78
5954;BME280;3002;42.642;24.812;2022-12-28T05:21:47;97410.72;;;11.35;58.66
5954;BME280;3002;42.642;24.812;2022-12-28T05:24:12;97404.00;;;11.17;59.37
5954;BME280;3002;42.642;24.812;2022-12-28T05:26:38;97387.34;;;11.05;58.98
5954;BME280;3002;42.642;24.812;2022-12-28T05:29:03;97423.56;;;11.08;59.69
5954;BME280;3002;42.642;24.812;2022-12-28T05:31:29;97438.06;;;11.27;59.40
5954;BME280;3002;42.642;24.812;2022-12-28T05:33:54;97425.22;;;11.29;59.84
5954;BME280;3002;42.642;24.812;2022-12-28T05:36:22;97434.31;;;11.18;60.53
5954;BME280;3002;42.642;24.812;2022-12-28T05:38:48;97416.28;;;10.88;60.69
5954;BME280;3002;42.642;24.812;2022-12-28T05:43:44;97417.38;;;11.07;61.13
5954;BME280;3002;42.642;24.812;2022-12-28T05:46:16;97431.88;;;11.06;59.84
5954;BME280;3002;42.642;24.812;2022-12-28T05:48:43;97411.47;;;10.80;59.83
5954;BME280;3002;42.642;24.812;2022-12-28T05:51:12;97404.72;;;10.77;59.34
5954;BME280;3002;42.642;24.812;2022-12-28T05:53:38;97444.78;;;11.14;59.02
5954;BME280;3002;42.642;24.812;2022-12-28T05:58:38;97441.06;;;11.36;58.88
5954;BME280;3002;42.642;24.812;2022-12-28T06:01:10;97455.00;;;11.38;59.69
5954;BME280;3002;42.642;24.812;2022-12-28T06:03:37;97466.31;;;11.35;60.29
5954;BME280;3002;42.642;24.812;2022-12-28T06:06:13;97463.59;;;11.19;60.53
5954;BME280;3002;42.642;24.812;2022-12-28T06:08:40;97455.97;;;10.76;61.54
5954;BME280;3002;42.642;24.812;2022-12-28T06:11:08;97444.22;;;10.97;59.79
5954;BME280;3002;42.642;24.812;2022-12-28T06:13:36;97458.50;;;11.18;60.16
5954;BME280;3002;42.642;24.812;2022-12-28T06:16:12;97427.63;;;11.25;59.90
5954;BME280;3002;42.642;24.812;2022-12-28T06:18:39;97441.81;;;11.06;59.49
5954;BME280;3002;42.642;24.812;2022-12-28T06:21:09;97450.16;;;11.19;59.17
5954;BME280;3002;42.642;24.812;2022-12-28T06:23:36;97461.16;;;11.13;60.12
5954;BME280;3002;42.642;24.812;2022-12-28T06:26:03;97457.13;;;11.15;59.38
5954;BME280;3002;42.642;24.812;2022-12-28T06:28:29;97450.69;;;11.06;58.40
5954;BME280;3002;42.642;24.812;2022-12-28T06:31:14;97456.31;;;11.20;58.08
5954;BME280;3002;42.642;24.812;2022-12-28T06:33:40;97414.63;;;10.71;58.60
5954;BME280;3002;42.642;24.812;2022-12-28T06:36:16;97462.50;;;11.05;58.31
5954;BME280;3002;42.642;24.812;2022-12-28T06:38:42;97427.84;;;10.88;58.10
5954;BME280;3002;42.642;24.812;2022-12-28T06:41:10;97463.34;;;11.31;58.12
5954;BME280;3002;42.642;24.812;2022-12-28T06:43:37;97442.88;;;10.99;57.70
5954;BME280;3002;42.642;24.812;2022-12-28T06:46:05;97429.22;;;11.57;57.00
5954;BME280;3002;42.642;24.812;2022-12-28T06:48:32;97460.66;;;12.08;56.21
5954;BME280;3002;42.642;24.812;2022-12-28T06:51:06;97429.78;;;11.90;56.48
5954;BME280;3002;42.642;24.812;2022-12-28T06:53:34;97468.66;;;12.23;56.83
5954;BME280;3002;42.642;24.812;2022-12-28T06:56:05;97425.16;;;11.80;58.21
5954;BME280;3002;42.642;24.812;2022-12-28T06:58:31;97435.41;;;11.73;58.35
5954;BME280;3002;42.642;24.812;2022-12-28T07:01:07;97455.78;;;12.10;58.08
5954;BME280;3002;42.642;24.812;2022-12-28T07:03:33;97470.31;;;12.09;58.38
5954;BME280;3002;42.642;24.812;2022-12-28T07:06:00;97452.31;;;12.04;58.17
5954;BME280;3002;42.642;24.812;2022-12-28T07:08:26;97451.72;;;12.27;56.96
5954;BME280;3002;42.642;24.812;2022-12-28T07:11:00;97444.22;;;12.14;56.25
5954;BME280;3002;42.642;24.812;2022-12-28T07:13:25;97473.75;;;12.35;55.66
5954;BME280;3002;42.642;24.812;2022-12-28T07:15:54;97470.22;;;12.49;54.43
5954;BME280;3002;42.642;24.812;2022-12-28T07:18:19;97453.28;;;12.44;55.01
5954;BME280;3002;42.642;24.812;2022-12-28T07:20:45;97467.75;;;12.63;54.54
5954;BME280;3002;42.642;24.812;2022-12-28T07:23:10;97479.88;;;12.61;55.37
5954;BME280;3002;42.642;24.812;2022-12-28T07:25:36;97485.16;;;12.86;55.56
5954;BME280;3002;42.642;24.812;2022-12-28T07:28:01;97480.06;;;12.79;54.93
5954;BME280;3002;42.642;24.812;2022-12-28T07:30:27;97489.06;;;13.14;54.45
5954;BME280;3002;42.642;24.812;2022-12-28T07:32:54;97515.25;;;13.48;54.07
5954;BME280;3002;42.642;24.812;2022-12-28T07:35:20;97506.81;;;13.15;54.55
5954;BME280;3002;42.642;24.812;2022-12-28T07:37:46;97510.41;;;13.50;54.07
5954;BME280;3002;42.642;24.812;2022-12-28T07:40:11;97507.50;;;13.80;50.54
5954;BME280;3002;42.642;24.812;2022-12-28T07:42:37;97510.94;;;13.47;48.28
5954;BME280;3002;42.642;24.812;2022-12-28T07:45:03;97470.13;;;12.70;49.54
5954;BME280;3002;42.642;24.812;2022-12-28T07:47:32;97483.84;;;13.33;49.49
5954;BME280;3002;42.642;24.812;2022-12-28T07:49:57;97521.13;;;13.94;49.81
5954;BME280;3002;42.642;24.812;2022-12-28T07:52:23;97496.09;;;14.17;48.75
5954;BME280;3002;42.642;24.812;2022-12-28T07:54:48;97499.59;;;14.47;47.72
5954;BME280;3002;42.642;24.812;2022-12-28T07:57:14;97509.66;;;14.65;47.52
5954;BME280;3002;42.642;24.812;2022-12-28T07:59:39;97501.28;;;14.38;47.81
5954;BME280;3002;42.642;24.812;2022-12-28T08:02:09;97509.44;;;15.05;47.51
5954;BME280;3002;42.642;24.812;2022-12-28T08:04:35;97494.25;;;14.90;47.52
5954;BME280;3002;42.642;24.812;2022-12-28T08:07:00;97527.34;;;15.01;46.83
5954;BME280;3002;42.642;24.812;2022-12-28T08:09:26;97526.38;;;14.38;47.27
5954;BME280;3002;42.642;24.812;2022-12-28T08:11:51;97532.56;;;14.39;46.66
5954;BME280;3002;42.642;24.812;2022-12-28T08:14:17;97532.38;;;13.67;48.43
5954;BME280;3002;42.642;24.812;2022-12-28T08:16:43;97535.06;;;13.23;48.03
5954;BME280;3002;42.642;24.812;2022-12-28T08:19:09;97532.81;;;13.40;46.77
5954;BME280;3002;42.642;24.812;2022-12-28T08:21:37;97525.00;;;12.84;47.25
5954;BME280;3002;42.642;24.812;2022-12-28T08:24:04;97538.47;;;13.44;45.64
5954;BME280;3002;42.642;24.812;2022-12-28T08:26:32;97510.97;;;12.87;46.38
5954;BME280;3002;42.642;24.812;2022-12-28T08:29:00;97545.19;;;13.46;45.66
5954;BME280;3002;42.642;24.812;2022-12-28T08:31:29;97550.84;;;12.80;46.10
5954;BME280;3002;42.642;24.812;2022-12-28T08:33:56;97563.88;;;13.17;46.38
5954;BME280;3002;42.642;24.812;2022-12-28T08:36:22;97548.69;;;12.77;46.30
5954;BME280;3002;42.642;24.812;2022-12-28T08:38:48;97586.22;;;13.28;45.96
5954;BME280;3002;42.642;24.812;2022-12-28T08:41:19;97583.72;;;13.42;45.79
5954;BME280;3002;42.642;24.812;2022-12-28T08:43:45;97584.13;;;13.69;45.21
5954;BME280;3002;42.642;24.812;2022-12-28T08:46:26;97589.41;;;13.84;46.95
5954;BME280;3002;42.642;24.812;2022-12-28T08:48:53;97596.69;;;12.44;52.19
5954;BME280;3002;42.642;24.812;2022-12-28T08:51:26;97586.44;;;12.56;51.93
5954;BME280;3002;42.642;24.812;2022-12-28T08:53:52;97606.09;;;12.01;53.01
5954;BME280;3002;42.642;24.812;2022-12-28T08:56:23;97613.63;;;12.50;51.45
5954;BME280;3002;42.642;24.812;2022-12-28T08:58:49;97594.78;;;12.60;50.12
5954;BME280;3002;42.642;24.812;2022-12-28T09:01:21;97576.47;;;12.52;49.35
5954;BME280;3002;42.642;24.812;2022-12-28T09:03:49;97600.69;;;13.47;47.03
5954;BME280;3002;42.642;24.812;2022-12-28T09:06:18;97596.66;;;13.50;46.62
5954;BME280;3002;42.642;24.812;2022-12-28T09:08:44;97597.75;;;13.88;45.79
5954;BME280;3002;42.642;24.812;2022-12-28T09:11:12;97567.59;;;14.15;45.32
5954;BME280;3002;42.642;24.812;2022-12-28T09:13:38;97550.84;;;14.76;43.21
5954;BME280;3002;42.642;24.812;2022-12-28T09:16:21;97594.06;;;15.24;42.98
5954;BME280;3002;42.642;24.812;2022-12-28T09:18:53;97566.66;;;15.12;41.17
5954;BME280;3002;42.642;24.812;2022-12-28T09:21:20;97582.59;;;15.32;40.94
5954;BME280;3002;42.642;24.812;2022-12-28T09:23:46;97578.59;;;15.48;41.53
5954;BME280;3002;42.642;24.812;2022-12-28T09:26:15;97581.63;;;15.66;41.63
5954;BME280;3002;42.642;24.812;2022-12-28T09:28:47;97598.81;;;15.51;41.47
5954;BME280;3002;42.642;24.812;2022-12-28T09:31:14;97591.88;;;15.45;42.24
5954;BME280;3002;42.642;24.812;2022-12-28T09:33:39;97578.16;;;15.41;41.94
5954;BME280;3002;42.642;24.812;2022-12-28T09:36:30;97560.53;;;15.25;42.29
5954;BME280;3002;42.642;24.812;2022-12-28T09:38:57;97590.59;;;15.18;41.11
5954;BME280;3002;42.642;24.812;2022-12-28T09:41:42;97576.84;;;15.15;40.91
5954;BME280;3002;42.642;24.812;2022-12-28T09:46:44;97573.00;;;14.97;40.84
5954;BME280;3002;42.642;24.812;2022-12-28T09:49:15;97571.34;;;15.01;41.43
5954;BME280;3002;42.642;24.812;2022-12-28T09:51:50;97583.78;;;15.45;40.64
5954;BME280;3002;42.642;24.812;2022-12-28T09:54:17;97569.31;;;15.36;40.06
5954;BME280;3002;42.642;24.812;2022-12-28T09:56:43;97575.88;;;15.30;40.09
5954;BME280;3002;42.642;24.812;2022-12-28T09:59:15;97539.59;;;14.40;44.84
5954;BME280;3002;42.642;24.812;2022-12-28T10:01:42;97562.41;;;14.24;48.28
5954;BME280;3002;42.642;24.812;2022-12-28T10:04:10;97560.31;;;13.81;49.66
5954;BME280;3002;42.642;24.812;2022-12-28T10:06:36;97564.66;;;14.11;48.93
5954;BME280;3002;42.642;24.812;2022-12-28T10:09:11;97567.72;;;14.34;48.95
5954;BME280;3002;42.642;24.812;2022-12-28T10:11:42;97564.41;;;14.42;48.86
5954;BME280;3002;42.642;24.812;2022-12-28T10:14:21;97580.78;;;14.80;48.16
5954;BME280;3002;42.642;24.812;2022-12-28T10:16:47;97571.66;;;14.99;48.07
5954;BME280;3002;42.642;24.812;2022-12-28T10:19:17;97580.06;;;14.93;48.23
5954;BME280;3002;42.642;24.812;2022-12-28T10:21:45;97529.75;;;14.54;48.28
5954;BME280;3002;42.642;24.812;2022-12-28T10:24:14;97571.97;;;14.69;48.76
5954;BME280;3002;42.642;24.812;2022-12-28T10:26:41;97552.09;;;14.60;48.64
5954;BME280;3002;42.642;24.812;2022-12-28T10:29:14;97588.38;;;15.02;47.67
5954;BME280;3002;42.642;24.812;2022-12-28T10:31:41;97572.97;;;14.49;47.76
5954;BME280;3002;42.642;24.812;2022-12-28T10:34:16;97561.66;;;14.76;47.58
5954;BME280;3002;42.642;24.812;2022-12-28T10:36:42;97564.75;;;14.88;47.85
5954;BME280;3002;42.642;24.812;2022-12-28T10:39:28;97567.56;;;14.78;47.94
5954;BME280;3002;42.642;24.812;2022-12-28T10:41:56;97553.88;;;14.40;49.02
5954;BME280;3002;42.642;24.812;2022-12-28T10:44:26;97582.22;;;14.96;48.04
5954;BME280;3002;42.642;24.812;2022-12-28T10:49:22;97537.16;;;15.34;46.15
5954;BME280;3002;42.642;24.812;2022-12-28T10:52:06;97566.78;;;15.63;45.21
5954;BME280;3002;42.642;24.812;2022-12-28T10:54:34;97569.69;;;15.48;45.41
5954;BME280;3002;42.642;24.812;2022-12-28T10:57:01;97564.53;;;15.27;46.30
5954;BME280;3002;42.642;24.812;2022-12-28T10:59:28;97540.44;;;15.12;46.13
5954;BME280;3002;42.642;24.812;2022-12-28T11:02:17;97558.81;;;14.86;47.45
5954;BME280;3002;42.642;24.812;2022-12-28T11:05:01;97563.31;;;14.96;47.47
5954;BME280;3002;42.642;24.812;2022-12-28T11:07:33;97553.22;;;15.25;48.90
5954;BME280;3002;42.642;24.812;2022-12-28T11:12:47;97546.94;;;13.66;51.33
5954;BME280;3002;42.642;24.812;2022-12-28T11:15:15;97519.19;;;14.00;50.04
5954;BME280;3002;42.642;24.812;2022-12-28T11:17:41;97540.66;;;14.68;48.76
5954;BME280;3002;42.642;24.812;2022-12-28T11:22:38;97515.03;;;14.89;48.57
5954;BME280;3002;42.642;24.812;2022-12-28T11:25:05;97547.38;;;14.47;49.51
5954;BME280;3002;42.642;24.812;2022-12-28T11:27:32;97532.31;;;14.40;50.27
5954;BME280;3002;42.642;24.812;2022-12-28T11:29:58;97540.78;;;14.29;50.07
5954;BME280;3002;42.642;24.812;2022-12-28T11:32:28;97520.03;;;14.24;50.26
5954;BME280;3002;42.642;24.812;2022-12-28T11:34:56;97531.50;;;14.11;49.44
5954;BME280;3002;42.642;24.812;2022-12-28T11:37:22;97524.25;;;14.06;49.43
5954;BME280;3002;42.642;24.812;2022-12-28T11:39:49;97516.00;;;13.92;49.32
5954;BME280;3002;42.642;24.812;2022-12-28T11:44:58;97510.72;;;13.77;49.27
5954;BME280;3002;42.642;24.812;2022-12-28T11:47:28;97547.63;;;14.16;48.72
5954;BME280;3002;42.642;24.812;2022-12-28T11:52:59;97510.72;;;14.11;48.21
5954;BME280;3002;42.642;24.812;2022-12-28T12:00:56;97537.28;;;14.28;49.39
5954;BME280;3002;42.642;24.812;2022-12-28T12:11:51;97531.75;;;14.38;48.93
5954;BME280;3002;42.642;24.812;2022-12-28T12:16:56;97524.59;;;14.58;48.62
5954;BME280;3002;42.642;24.812;2022-12-28T12:19:35;97517.16;;;14.68;48.33
5954;BME280;3002;42.642;24.812;2022-12-28T12:22:09;97530.84;;;14.53;48.12
5954;BME280;3002;42.642;24.812;2022-12-28T12:24:55;97497.16;;;14.45;47.69
5954;BME280;3002;42.642;24.812;2022-12-28T12:27:33;97519.72;;;13.97;49.01
5954;BME280;3002;42.642;24.812;2022-12-28T12:30:13;97526.75;;;14.27;48.93
5954;BME280;3002;42.642;24.812;2022-12-28T12:32:50;97519.03;;;13.86;49.57
5954;BME280;3002;42.642;24.812;2022-12-28T12:35:20;97518.09;;;14.01;49.59
5954;BME280;3002;42.642;24.812;2022-12-28T12:43:31;97525.53;;;14.14;49.28
5954;BME280;3002;42.642;24.812;2022-12-28T12:49:03;97523.69;;;14.09;49.09
5954;BME280;3002;42.642;24.812;2022-12-28T12:51:53;97515.50;;;14.19;47.92
5954;BME280;3002;42.642;24.812;2022-12-28T13:05:57;97493.81;;;13.66;48.68
5954;BME280;3002;42.642;24.812;2022-12-28T13:08:40;97501.59;;;13.73;49.51
5954;BME280;3002;42.642;24.812;2022-12-28T13:11:10;97503.66;;;13.52;49.54
5954;BME280;3002;42.642;24.812;2022-12-28T13:13:37;97489.69;;;13.45;49.92
5954;BME280;3002;42.642;24.812;2022-12-28T13:16:09;97512.50;;;13.92;49.52
5954;BME280;3002;42.642;24.812;2022-12-28T13:18:36;97516.13;;;13.77;49.19
5954;BME280;3002;42.642;24.812;2022-12-28T13:21:04;97504.66;;;13.61;50.95
5954;BME280;3002;42.642;24.812;2022-12-28T13:23:31;97513.78;;;13.65;51.55
5954;BME280;3002;42.642;24.812;2022-12-28T13:26:01;97509.22;;;13.61;51.19
5954;BME280;3002;42.642;24.812;2022-12-28T13:28:33;97506.06;;;13.54;51.40
5954;BME280;3002;42.642;24.812;2022-12-28T13:31:14;97514.06;;;13.64;51.40
5954;BME280;3002;42.642;24.812;2022-12-28T13:33:40;97481.13;;;13.38;51.68
5954;BME280;3002;42.642;24.812;2022-12-28T13:36:29;97508.28;;;13.42;52.13
5954;BME280;3002;42.642;24.812;2022-12-28T13:39:19;97511.88;;;13.32;52.54
5954;BME280;3002;42.642;24.812;2022-12-28T13:41:56;97506.28;;;13.62;51.99
5954;BME280;3002;42.642;24.812;2022-12-28T13:44:44;97508.34;;;13.71;52.76
5954;BME280;3002;42.642;24.812;2022-12-28T13:47:36;97509.13;;;13.76;52.52
5954;BME280;3002;42.642;24.812;2022-12-28T13:50:23;97500.50;;;13.40;53.16
5954;BME280;3002;42.642;24.812;2022-12-28T13:53:12;97507.00;;;13.34;53.50
5954;BME280;3002;42.642;24.812;2022-12-28T13:55:44;97511.56;;;13.38;51.93
5954;BME280;3002;42.642;24.812;2022-12-28T13:58:17;97515.16;;;13.63;49.36
5954;BME280;3002;42.642;24.812;2022-12-28T14:00:48;97493.41;;;13.49;49.19
5954;BME280;3002;42.642;24.812;2022-12-28T14:03:17;97501.91;;;13.66;48.88
5954;BME280;3002;42.642;24.812;2022-12-28T14:05:47;97499.75;;;13.19;50.84
5954;BME280;3002;42.642;24.812;2022-12-28T14:08:14;97512.16;;;13.25;50.01
5954;BME280;3002;42.642;24.812;2022-12-28T14:10:42;97489.81;;;13.25;50.26
5954;BME280;3002;42.642;24.812;2022-12-28T14:13:09;97511.31;;;13.30;50.02
5954;BME280;3002;42.642;24.812;2022-12-28T14:15:35;97511.63;;;13.28;51.08
5954;BME280;3002;42.642;24.812;2022-12-28T14:18:17;97506.22;;;13.28;50.54
5954;BME280;3002;42.642;24.812;2022-12-28T14:20:47;97485.44;;;13.34;49.93
5954;BME280;3002;42.642;24.812;2022-12-28T14:23:27;97463.91;;;12.79;50.39
5954;BME280;3002;42.642;24.812;2022-12-28T14:25:56;97521.09;;;13.21;50.66
5954;BME280;3002;42.642;24.812;2022-12-28T14:28:44;97496.31;;;13.13;50.57
5954;BME280;3002;42.642;24.812;2022-12-28T14:31:13;97504.31;;;13.34;50.60
5954;BME280;3002;42.642;24.812;2022-12-28T14:34:01;97506.88;;;13.49;50.67
5954;BME280;3002;42.642;24.812;2022-12-28T14:36:46;97485.72;;;13.32;51.08
5954;BME280;3002;42.642;24.812;2022-12-28T14:39:36;97490.69;;;13.10;51.46
5954;BME280;3002;42.642;24.812;2022-12-28T14:42:24;97495.25;;;13.09;51.78
5954;BME280;3002;42.642;24.812;2022-12-28T14:44:50;97496.31;;;13.13;51.55
5954;BME280;3002;42.642;24.812;2022-12-28T14:47:52;97499.50;;;13.26;51.68
5954;BME280;3002;42.642;24.812;2022-12-28T14:50:28;97494.53;;;12.89;51.53
5954;BME280;3002;42.642;24.812;2022-12-28T14:53:14;97500.38;;;13.11;51.55